sensor_id;sensor_type;location;lat;lon;timestamp;pressure;altitude;pressure_sealevel;temperature;humidity
46710;BME280;32442;51.514;-0.178;2023-04-15T00:01:37;100596.19;;;14.17;51.67
46710;BME280;32442;51.514;-0.178;2023-04-15T00:04:04;100612.84;;;14.17;51.73
46710;BME280;32442;51.514;-0.178;2023-04-15T00:06:31;100606.47;;;14.16;51.65
46710;BME280;32442;51.514;-0.178;2023-04-15T00:08:58;100603.69;;;14.16;51.97
46710;BME280;32442;51.514;-0.178;2023-04-15T00:11:25;100603.94;;;14.15;51.64
46710;BME280;32442;51.514;-0.178;2023-04-15T00:13:52;100617.25;;;14.13;51.67
46710;BME280;32442;51.514;-0.178;2023-04-15T00:16:19;100615.63;;;14.17;51.65
46710;BME280;32442;51.514;-0.178;2023-04-15T00:18:46;100615.63;;;14.17;51.84
46710;BME280;32442;51.514;-0.178;2023-04-15T00:21:13;100608.91;;;14.13;51.59
46710;BME280;32442;51.514;-0.178;2023-04-15T00:23:40;100616.16;;;14.14;51.82
46710;BME280;32442;51.514;-0.178;2023-04-15T00:26:07;100622.81;;;14.13;52.00
46710;BME280;32442;51.514;-0.178;2023-04-15T00:28:34;100627.25;;;14.14;51.71
46710;BME280;32442;51.514;-0.178;2023-04-15T00:31:01;100632.81;;;14.14;51.90
46710;BME280;32442;51.514;-0.178;2023-04-15T00:33:27;100642.25;;;14.13;51.90
46710;BME280;32442;51.514;-0.178;2023-04-15T00:35:54;100633.66;;;14.14;51.72
46710;BME280;32442;51.514;-0.178;2023-04-15T00:38:21;100642.25;;;14.13;51.83
46710;BME280;32442;51.514;-0.178;2023-04-15T00:40:48;100644.50;;;14.11;51.81
46710;BME280;32442;51.514;-0.178;2023-04-15T00:43:15;100638.09;;;14.10;52.01
46710;BME280;32442;51.514;-0.178;2023-04-15T00:45:43;100647.81;;;14.13;51.90
46710;BME280;32442;51.514;-0.178;2023-04-15T00:48:10;100645.03;;;14.13;51.67
46710;BME280;32442;51.514;-0.178;2023-04-15T00:50:37;100645.31;;;14.11;51.82
46710;BME280;32442;51.514;-0.178;2023-04-15T00:53:06;100651.72;;;14.12;52.00
46710;BME280;32442;51.514;-0.178;2023-04-15T00:55:33;100656.16;;;14.13;51.99
46710;BME280;32442;51.514;-0.178;2023-04-15T00:58:00;100658.38;;;14.11;51.85
46710;BME280;32442;51.514;-0.178;2023-04-15T01:00:27;100653.66;;;14.11;52.13
46710;BME280;32442;51.514;-0.178;2023-04-15T01:02:54;100665.06;;;14.15;51.88
46710;BME280;32442;51.514;-0.178;2023-04-15T01:05:21;100665.59;;;14.12;51.76
46710;BME280;32442;51.514;-0.178;2023-04-15T01:07:49;100660.91;;;14.12;52.05
46710;BME280;32442;51.514;-0.178;2023-04-15T01:10:16;100668.66;;;14.10;52.00
46710;BME280;32442;51.514;-0.178;2023-04-15T01:12:43;100675.88;;;14.11;52.01
46710;BME280;32442;51.514;-0.178;2023-04-15T01:15:10;100680.84;;;14.09;52.09
46710;BME280;32442;51.514;-0.178;2023-04-15T01:17:37;100690.59;;;14.12;51.92
46710;BME280;32442;51.514;-0.178;2023-04-15T01:20:05;100694.50;;;14.11;52.18
46710;BME280;32442;51.514;-0.178;2023-04-15T01:22:32;100696.44;;;14.10;51.94
46710;BME280;32442;51.514;-0.178;2023-04-15T01:25:00;100688.94;;;14.11;51.99
46710;BME280;32442;51.514;-0.178;2023-04-15T01:27:31;100693.06;;;14.08;51.97
46710;BME280;32442;51.514;-0.178;2023-04-15T01:29:58;100697.00;;;14.12;51.98
46710;BME280;32442;51.514;-0.178;2023-04-15T01:32:25;100705.03;;;14.09;51.87
46710;BME280;32442;51.514;-0.178;2023-04-15T01:34:52;100712.25;;;14.10;52.07
46710;BME280;32442;51.514;-0.178;2023-04-15T01:37:19;100716.13;;;14.09;52.20
46710;BME280;32442;51.514;-0.178;2023-04-15T01:39:46;100719.50;;;14.11;51.98
46710;BME280;32442;51.514;-0.178;2023-04-15T01:42:13;100719.19;;;14.07;52.22
46710;BME280;32442;51.514;-0.178;2023-04-15T01:44:39;100716.72;;;14.11;51.93
46710;BME280;32442;51.514;-0.178;2023-04-15T01:47:06;100723.38;;;14.10;51.88
46710;BME280;32442;51.514;-0.178;2023-04-15T01:49:36;100738.34;;;14.09;51.80
46710;BME280;32442;51.514;-0.178;2023-04-15T01:52:05;100735.88;;;14.07;51.97
46710;BME280;32442;51.514;-0.178;2023-04-15T01:54:32;100736.16;;;14.11;51.75
46710;BME280;32442;51.514;-0.178;2023-04-15T01:56:59;100736.72;;;14.08;51.79
46710;BME280;32442;51.514;-0.178;2023-04-15T01:59:26;100740.03;;;14.10;52.04
46710;BME280;32442;51.514;-0.178;2023-04-15T02:01:52;100747.81;;;14.08;51.78
46710;BME280;32442;51.514;-0.178;2023-04-15T02:04:19;100758.94;;;14.08;51.90
46710;BME280;32442;51.514;-0.178;2023-04-15T02:06:46;100749.47;;;14.09;52.06
46710;BME280;32442;51.514;-0.178;2023-04-15T02:09:13;100751.72;;;14.12;51.76
46710;BME280;32442;51.514;-0.178;2023-04-15T02:11:40;100755.03;;;14.09;51.93
46710;BME280;32442;51.514;-0.178;2023-04-15T02:14:07;100760.06;;;14.12;51.90
46710;BME280;32442;51.514;-0.178;2023-04-15T02:16:33;100764.78;;;14.11;51.77
46710;BME280;32442;51.514;-0.178;2023-04-15T02:19:00;100766.13;;;14.09;51.93
46710;BME280;32442;51.514;-0.178;2023-04-15T02:21:27;100770.31;;;14.11;51.90
46710;BME280;32442;51.514;-0.178;2023-04-15T02:23:54;100771.69;;;14.09;51.89
46710;BME280;32442;51.514;-0.178;2023-04-15T02:26:21;100771.44;;;14.10;51.66
46710;BME280;32442;51.514;-0.178;2023-04-15T02:28:48;100774.75;;;14.07;51.91
46710;BME280;32442;51.514;-0.178;2023-04-15T02:31:16;100781.41;;;14.06;51.96
46710;BME280;32442;51.514;-0.178;2023-04-15T02:33:44;100790.59;;;14.07;52.11
46710;BME280;32442;51.514;-0.178;2023-04-15T02:36:10;100790.00;;;14.05;52.13
46710;BME280;32442;51.514;-0.178;2023-04-15T02:38:38;100797.53;;;14.09;51.77
46710;BME280;32442;51.514;-0.178;2023-04-15T02:41:08;100795.03;;;14.08;51.88
46710;BME280;32442;51.514;-0.178;2023-04-15T02:43:35;100794.44;;;14.06;51.82
46710;BME280;32442;51.514;-0.178;2023-04-15T02:46:02;100801.41;;;14.08;51.71
46710;BME280;32442;51.514;-0.178;2023-04-15T02:48:29;100801.69;;;14.07;51.79
46710;BME280;32442;51.514;-0.178;2023-04-15T02:53:32;100812.22;;;14.05;51.91
46710;BME280;32442;51.514;-0.178;2023-04-15T02:55:59;100817.50;;;14.06;51.98
46710;BME280;32442;51.514;-0.178;2023-04-15T02:58:26;100816.13;;;14.09;51.64
46710;BME280;32442;51.514;-0.178;2023-04-15T03:00:53;100828.91;;;14.10;51.86
46710;BME280;32442;51.514;-0.178;2023-04-15T03:03:20;100827.78;;;14.06;51.70
46710;BME280;32442;51.514;-0.178;2023-04-15T03:05:47;100826.16;;;14.10;51.88
46710;BME280;32442;51.514;-0.178;2023-04-15T03:08:14;100825.84;;;14.06;51.99
46710;BME280;32442;51.514;-0.178;2023-04-15T03:10:43;100826.09;;;14.05;51.96
46710;BME280;32442;51.514;-0.178;2023-04-15T03:13:10;100838.31;;;14.04;51.82
46710;BME280;32442;51.514;-0.178;2023-04-15T03:15:36;100830.31;;;14.07;51.69
46710;BME280;32442;51.514;-0.178;2023-04-15T03:18:03;100834.44;;;14.05;51.76
46710;BME280;32442;51.514;-0.178;2023-04-15T03:20:30;100838.91;;;14.06;51.73
46710;BME280;32442;51.514;-0.178;2023-04-15T03:22:57;100835.56;;;14.09;51.77
46710;BME280;32442;51.514;-0.178;2023-04-15T03:25:24;100845.03;;;14.08;51.52
46710;BME280;32442;51.514;-0.178;2023-04-15T03:27:51;100842.50;;;14.06;51.75
46710;BME280;32442;51.514;-0.178;2023-04-15T03:30:20;100852.19;;;14.04;52.07
46710;BME280;32442;51.514;-0.178;2023-04-15T03:32:47;100858.34;;;14.06;51.75
46710;BME280;32442;51.514;-0.178;2023-04-15T03:35:14;100869.44;;;14.06;51.80
46710;BME280;32442;51.514;-0.178;2023-04-15T03:37:41;100870.56;;;14.05;52.02
46710;BME280;32442;51.514;-0.178;2023-04-15T03:40:08;100877.78;;;14.06;51.92
46710;BME280;32442;51.514;-0.178;2023-04-15T03:42:35;100878.38;;;14.08;51.88
46710;BME280;32442;51.514;-0.178;2023-04-15T03:45:02;100879.72;;;14.05;51.96
46710;BME280;32442;51.514;-0.178;2023-04-15T03:47:29;100887.50;;;14.08;51.73
46710;BME280;32442;51.514;-0.178;2023-04-15T03:49:56;100900.00;;;14.06;51.95
46710;BME280;32442;51.514;-0.178;2023-04-15T03:52:23;100898.06;;;14.06;51.80
46710;BME280;32442;51.514;-0.178;2023-04-15T03:54:50;100901.69;;;14.07;51.90
46710;BME280;32442;51.514;-0.178;2023-04-15T03:57:17;100900.59;;;14.08;51.88
46710;BME280;32442;51.514;-0.178;2023-04-15T03:59:43;100905.81;;;14.04;51.85
46710;BME280;32442;51.514;-0.178;2023-04-15T04:02:10;100905.03;;;14.09;51.93
46710;BME280;32442;51.514;-0.178;2023-04-15T04:04:37;100908.94;;;14.08;51.77
46710;BME280;32442;51.514;-0.178;2023-04-15T04:07:04;100906.41;;;14.06;51.73
46710;BME280;32442;51.514;-0.178;2023-04-15T04:09:31;100912.22;;;14.05;51.62
46710;BME280;32442;51.514;-0.178;2023-04-15T04:11:58;100921.38;;;14.05;51.81
46710;BME280;32442;51.514;-0.178;2023-04-15T04:14:24;100930.56;;;14.06;51.83
46710;BME280;32442;51.514;-0.178;2023-04-15T04:16:55;100930.56;;;14.06;51.72
46710;BME280;32442;51.514;-0.178;2023-04-15T04:19:23;100930.03;;;14.09;51.69
46710;BME280;32442;51.514;-0.178;2023-04-15T04:21:50;100934.19;;;14.06;51.78
46710;BME280;32442;51.514;-0.178;2023-04-15T04:24:16;100941.94;;;14.04;52.12
46710;BME280;32442;51.514;-0.178;2023-04-15T04:26:45;100941.94;;;14.04;52.05
46710;BME280;32442;51.514;-0.178;2023-04-15T04:29:12;100948.31;;;14.05;51.93
46710;BME280;32442;51.514;-0.178;2023-04-15T04:31:39;100953.03;;;14.04;51.88
46710;BME280;32442;51.514;-0.178;2023-04-15T04:34:06;100963.31;;;14.04;51.76
46710;BME280;32442;51.514;-0.178;2023-04-15T04:36:36;100963.63;;;14.07;51.64
46710;BME280;32442;51.514;-0.178;2023-04-15T04:39:03;100968.88;;;14.04;51.83
46710;BME280;32442;51.514;-0.178;2023-04-15T04:41:30;100971.63;;;14.04;51.73
46710;BME280;32442;51.514;-0.178;2023-04-15T04:43:57;100975.00;;;14.06;51.89
46710;BME280;32442;51.514;-0.178;2023-04-15T04:46:24;100988.06;;;14.05;51.74
46710;BME280;32442;51.514;-0.178;2023-04-15T04:48:51;100983.59;;;14.04;51.79
46710;BME280;32442;51.514;-0.178;2023-04-15T04:51:18;100987.50;;;14.03;51.77
46710;BME280;32442;51.514;-0.178;2023-04-15T04:53:44;100994.44;;;14.06;51.69
46710;BME280;32442;51.514;-0.178;2023-04-15T04:56:11;100993.59;;;14.05;51.87
46710;BME280;32442;51.514;-0.178;2023-04-15T04:58:38;101000.53;;;14.03;52.04
46710;BME280;32442;51.514;-0.178;2023-04-15T05:01:05;101015.81;;;14.05;51.88
46710;BME280;32442;51.514;-0.178;2023-04-15T05:03:32;101009.44;;;14.05;51.88
46710;BME280;32442;51.514;-0.178;2023-04-15T05:05:59;101013.63;;;14.07;51.82
46710;BME280;32442;51.514;-0.178;2023-04-15T05:08:31;101020.00;;;14.03;51.93
46710;BME280;32442;51.514;-0.178;2023-04-15T05:10:58;101026.41;;;14.08;51.60
46710;BME280;32442;51.514;-0.178;2023-04-15T05:13:25;101033.59;;;14.04;51.83
46710;BME280;32442;51.514;-0.178;2023-04-15T05:15:52;101038.91;;;14.06;51.97
46710;BME280;32442;51.514;-0.178;2023-04-15T05:18:19;101044.44;;;14.06;51.63
46710;BME280;32442;51.514;-0.178;2023-04-15T05:20:46;101059.97;;;14.02;51.93
46710;BME280;32442;51.514;-0.178;2023-04-15T05:23:12;101060.53;;;14.04;52.01
46710;BME280;32442;51.514;-0.178;2023-04-15T05:25:39;101065.53;;;14.02;52.15
46710;BME280;32442;51.514;-0.178;2023-04-15T05:28:06;101069.16;;;14.02;52.07
46710;BME280;32442;51.514;-0.178;2023-04-15T05:30:33;101077.19;;;14.04;51.96
46710;BME280;32442;51.514;-0.178;2023-04-15T05:33:01;101086.91;;;14.01;52.02
46710;BME280;32442;51.514;-0.178;2023-04-15T05:35:27;101089.69;;;14.01;51.95
46710;BME280;32442;51.514;-0.178;2023-04-15T05:37:54;101099.94;;;14.01;51.96
46710;BME280;32442;51.514;-0.178;2023-04-15T05:40:21;101107.19;;;14.02;51.82
46710;BME280;32442;51.514;-0.178;2023-04-15T05:42:48;101113.84;;;14.01;51.99
46710;BME280;32442;51.514;-0.178;2023-04-15T05:45:15;101118.28;;;14.02;52.19
46710;BME280;32442;51.514;-0.178;2023-04-15T05:47:42;101134.13;;;14.01;52.24
46710;BME280;32442;51.514;-0.178;2023-04-15T05:50:09;101136.31;;;13.99;52.21
46710;BME280;32442;51.514;-0.178;2023-04-15T05:52:36;101143.53;;;14.00;52.06
46710;BME280;32442;51.514;-0.178;2023-04-15T05:55:03;101147.47;;;14.04;51.75
46710;BME280;32442;51.514;-0.178;2023-04-15T05:57:30;101159.72;;;14.03;51.91
46710;BME280;32442;51.514;-0.178;2023-04-15T05:59:57;101157.19;;;14.02;52.17
46710;BME280;32442;51.514;-0.178;2023-04-15T06:02:24;101163.31;;;14.04;51.80
46710;BME280;32442;51.514;-0.178;2023-04-15T06:04:51;101165.84;;;14.05;51.93
46710;BME280;32442;51.514;-0.178;2023-04-15T06:07:18;101176.38;;;14.03;51.85
46710;BME280;32442;51.514;-0.178;2023-04-15T06:09:44;101177.78;;;14.06;51.67
46710;BME280;32442;51.514;-0.178;2023-04-15T06:12:11;101179.41;;;14.02;51.93
46710;BME280;32442;51.514;-0.178;2023-04-15T06:14:38;101175.25;;;14.04;52.06
46710;BME280;32442;51.514;-0.178;2023-04-15T06:17:06;101188.59;;;14.02;51.93
46710;BME280;32442;51.514;-0.178;2023-04-15T06:19:33;101182.50;;;14.05;52.08
46710;BME280;32442;51.514;-0.178;2023-04-15T06:22:00;101183.53;;;13.99;51.98
46710;BME280;32442;51.514;-0.178;2023-04-15T06:24:27;101186.06;;;14.01;52.20
46710;BME280;32442;51.514;-0.178;2023-04-15T06:26:54;101201.03;;;14.00;52.02
46710;BME280;32442;51.514;-0.178;2023-04-15T06:29:21;101200.19;;;13.99;51.95
46710;BME280;32442;51.514;-0.178;2023-04-15T06:31:48;101212.97;;;14.00;52.19
46710;BME280;32442;51.514;-0.178;2023-04-15T06:34:15;101212.22;;;14.05;51.91
46710;BME280;32442;51.514;-0.178;2023-04-15T06:36:45;101215.00;;;14.05;51.79
46710;BME280;32442;51.514;-0.178;2023-04-15T06:39:12;101218.28;;;14.02;51.98
46710;BME280;32442;51.514;-0.178;2023-04-15T06:41:38;101223.59;;;14.03;51.91
46710;BME280;32442;51.514;-0.178;2023-04-15T06:44:06;101225.53;;;14.03;52.09
46710;BME280;32442;51.514;-0.178;2023-04-15T06:46:33;101231.34;;;14.01;52.22
46710;BME280;32442;51.514;-0.178;2023-04-15T06:48:59;101245.22;;;14.01;52.11
46710;BME280;32442;51.514;-0.178;2023-04-15T06:51:27;101251.31;;;13.98;52.19
46710;BME280;32442;51.514;-0.178;2023-04-15T06:53:53;101251.88;;;14.00;52.18
46710;BME280;32442;51.514;-0.178;2023-04-15T06:56:20;101258.88;;;14.03;52.27
46710;BME280;32442;51.514;-0.178;2023-04-15T06:58:47;101262.13;;;14.00;52.01
46710;BME280;32442;51.514;-0.178;2023-04-15T07:01:14;101272.16;;;14.01;52.09
46710;BME280;32442;51.514;-0.178;2023-04-15T07:03:41;101274.63;;;13.97;52.36
46710;BME280;32442;51.514;-0.178;2023-04-15T07:06:08;101271.59;;;13.99;52.36
46710;BME280;32442;51.514;-0.178;2023-04-15T07:08:35;101288.81;;;14.01;52.37
46710;BME280;32442;51.514;-0.178;2023-04-15T07:11:02;101293.28;;;14.02;52.06
46710;BME280;32442;51.514;-0.178;2023-04-15T07:13:29;101291.34;;;14.02;52.23
46710;BME280;32442;51.514;-0.178;2023-04-15T07:15:57;101305.56;;;14.06;52.03
46710;BME280;32442;51.514;-0.178;2023-04-15T07:18:24;101307.19;;;14.02;52.38
46710;BME280;32442;51.514;-0.178;2023-04-15T07:20:51;101322.75;;;14.03;52.35
46710;BME280;32442;51.514;-0.178;2023-04-15T07:23:18;101314.16;;;14.04;52.26
46710;BME280;32442;51.514;-0.178;2023-04-15T07:25:45;101320.31;;;14.06;51.82
46710;BME280;32442;51.514;-0.178;2023-04-15T07:28:11;101328.03;;;14.04;52.26
46710;BME280;32442;51.514;-0.178;2023-04-15T07:30:38;101328.63;;;14.06;51.91
46710;BME280;32442;51.514;-0.178;2023-04-15T07:33:05;101343.84;;;14.04;52.31
46710;BME280;32442;51.514;-0.178;2023-04-15T07:35:32;101341.09;;;14.04;52.00
46710;BME280;32442;51.514;-0.178;2023-04-15T07:37:59;101345.47;;;14.00;52.31
46710;BME280;32442;51.514;-0.178;2023-04-15T07:40:26;101354.16;;;14.03;51.97
46710;BME280;32442;51.514;-0.178;2023-04-15T07:42:54;101359.44;;;14.05;52.13
46710;BME280;32442;51.514;-0.178;2023-04-15T07:45:23;101368.88;;;14.04;52.32
46710;BME280;32442;51.514;-0.178;2023-04-15T07:47:49;101371.06;;;14.02;52.38
46710;BME280;32442;51.514;-0.178;2023-04-15T07:50:17;101385.53;;;14.04;52.16
46710;BME280;32442;51.514;-0.178;2023-04-15T07:52:45;101385.28;;;14.05;51.85
46710;BME280;32442;51.514;-0.178;2023-04-15T07:55:12;101392.78;;;14.05;52.17
46710;BME280;32442;51.514;-0.178;2023-04-15T07:57:39;101397.25;;;14.06;51.89
46710;BME280;32442;51.514;-0.178;2023-04-15T08:00:06;101400.03;;;14.06;52.24
46710;BME280;32442;51.514;-0.178;2023-04-15T08:02:33;101396.16;;;14.07;51.98
46710;BME280;32442;51.514;-0.178;2023-04-15T08:05:03;101408.13;;;14.07;51.97
46710;BME280;32442;51.514;-0.178;2023-04-15T08:07:30;101414.22;;;14.09;52.04
46710;BME280;32442;51.514;-0.178;2023-04-15T08:09:58;101418.94;;;14.09;51.93
46710;BME280;32442;51.514;-0.178;2023-04-15T08:12:27;101415.94;;;14.10;52.03
46710;BME280;32442;51.514;-0.178;2023-04-15T08:14:54;101413.16;;;14.10;51.97
46710;BME280;32442;51.514;-0.178;2023-04-15T08:17:21;101418.72;;;14.10;51.97
46710;BME280;32442;51.514;-0.178;2023-04-15T08:19:47;101422.91;;;14.13;51.73
46710;BME280;32442;51.514;-0.178;2023-04-15T08:22:14;101424.03;;;14.12;51.96
46710;BME280;32442;51.514;-0.178;2023-04-15T08:24:44;101425.94;;;14.11;51.87
46710;BME280;32442;51.514;-0.178;2023-04-15T08:27:11;101436.22;;;14.11;51.87
46710;BME280;32442;51.514;-0.178;2023-04-15T08:29:38;101445.41;;;14.11;51.86
46710;BME280;32442;51.514;-0.178;2023-04-15T08:32:06;101441.78;;;14.11;51.90
46710;BME280;32442;51.514;-0.178;2023-04-15T08:34:33;101446.50;;;14.10;52.04
46710;BME280;32442;51.514;-0.178;2023-04-15T08:37:00;101445.13;;;14.13;52.15
46710;BME280;32442;51.514;-0.178;2023-04-15T08:39:27;101453.75;;;14.11;51.91
46710;BME280;32442;51.514;-0.178;2023-04-15T08:41:58;101454.81;;;14.10;52.08
46710;BME280;32442;51.514;-0.178;2023-04-15T08:44:28;101459.53;;;14.10;52.18
46710;BME280;32442;51.514;-0.178;2023-04-15T08:46:55;101465.69;;;14.12;52.17
46710;BME280;32442;51.514;-0.178;2023-04-15T08:49:22;101467.97;;;14.15;51.75
46710;BME280;32442;51.514;-0.178;2023-04-15T08:51:52;101470.72;;;14.15;52.07
46710;BME280;32442;51.514;-0.178;2023-04-15T08:54:22;101478.56;;;14.18;51.85
46710;BME280;32442;51.514;-0.178;2023-04-15T08:56:49;101491.88;;;14.16;51.98
46710;BME280;32442;51.514;-0.178;2023-04-15T08:59:18;101480.47;;;14.17;51.95
46710;BME280;32442;51.514;-0.178;2023-04-15T09:01:47;101495.50;;;14.16;51.96
46710;BME280;32442;51.514;-0.178;2023-04-15T09:04:15;101491.88;;;14.16;52.06
46710;BME280;32442;51.514;-0.178;2023-04-15T09:06:42;101498.00;;;14.18;51.94
46710;BME280;32442;51.514;-0.178;2023-04-15T09:09:10;101494.13;;;14.19;51.85
46710;BME280;32442;51.514;-0.178;2023-04-15T09:11:38;101497.16;;;14.17;51.97
46710;BME280;32442;51.514;-0.178;2023-04-15T09:14:05;101507.47;;;14.17;51.94
46710;BME280;32442;51.514;-0.178;2023-04-15T09:21:47;101526.91;;;14.17;52.13
46710;BME280;32442;51.514;-0.178;2023-04-15T09:24:14;101528.31;;;14.19;51.93
46710;BME280;32442;51.514;-0.178;2023-04-15T09:26:41;101529.75;;;14.22;51.88
46710;BME280;32442;51.514;-0.178;2023-04-15T09:29:09;101542.81;;;14.21;51.85
46710;BME280;32442;51.514;-0.178;2023-04-15T09:31:39;101555.03;;;14.20;51.76
46710;BME280;32442;51.514;-0.178;2023-04-15T09:34:06;101556.97;;;14.20;51.63
46710;BME280;32442;51.514;-0.178;2023-04-15T09:36:50;101569.25;;;14.24;51.88
46710;BME280;32442;51.514;-0.178;2023-04-15T09:39:18;101574.47;;;14.20;51.92
46710;BME280;32442;51.514;-0.178;2023-04-15T09:41:45;101579.75;;;14.22;51.86
46710;BME280;32442;51.514;-0.178;2023-04-15T09:46:50;101597.03;;;14.24;51.81
46710;BME280;32442;51.514;-0.178;2023-04-15T09:49:17;101605.03;;;14.20;51.84
46710;BME280;32442;51.514;-0.178;2023-04-15T09:51:45;101608.16;;;14.24;51.99
46710;BME280;32442;51.514;-0.178;2023-04-15T09:54:36;101613.97;;;14.22;51.82
46710;BME280;32442;51.514;-0.178;2023-04-15T09:57:05;101622.81;;;14.19;52.22
46710;BME280;32442;51.514;-0.178;2023-04-15T09:59:33;101623.16;;;14.23;51.91
46710;BME280;32442;51.514;-0.178;2023-04-15T10:02:00;101624.00;;;14.23;51.68
46710;BME280;32442;51.514;-0.178;2023-04-15T10:04:29;101626.25;;;14.26;51.78
46710;BME280;32442;51.514;-0.178;2023-04-15T10:06:58;101624.84;;;14.24;51.85
46710;BME280;32442;51.514;-0.178;2023-04-15T10:09:28;101624.84;;;14.24;51.93
46710;BME280;32442;51.514;-0.178;2023-04-15T10:11:55;101633.19;;;14.24;51.85
46710;BME280;32442;51.514;-0.178;2023-04-15T10:14:22;101632.94;;;14.25;51.78
46710;BME280;32442;51.514;-0.178;2023-04-15T10:16:51;101636.19;;;14.22;51.94
46710;BME280;32442;51.514;-0.178;2023-04-15T10:19:19;101642.34;;;14.24;52.08
46710;BME280;32442;51.514;-0.178;2023-04-15T10:21:48;101647.41;;;14.27;51.71
46710;BME280;32442;51.514;-0.178;2023-04-15T10:24:18;101650.19;;;14.27;51.68
46710;BME280;32442;51.514;-0.178;2023-04-15T10:26:45;101654.66;;;14.29;51.70
46710;BME280;32442;51.514;-0.178;2023-04-15T10:29:12;101657.69;;;14.27;51.72
46710;BME280;32442;51.514;-0.178;2023-04-15T10:31:39;101660.22;;;14.29;52.03
46710;BME280;32442;51.514;-0.178;2023-04-15T10:34:07;101673.28;;;14.28;52.10
46710;BME280;32442;51.514;-0.178;2023-04-15T10:36:34;101681.59;;;14.28;51.71
46710;BME280;32442;51.514;-0.178;2023-04-15T10:39:01;101680.53;;;14.29;51.75
46710;BME280;32442;51.514;-0.178;2023-04-15T10:41:28;101682.22;;;14.30;51.73
46710;BME280;32442;51.514;-0.178;2023-04-15T10:46:33;101687.78;;;14.30;51.94
46710;BME280;32442;51.514;-0.178;2023-04-15T10:51:40;101691.13;;;14.32;51.85
46710;BME280;32442;51.514;-0.178;2023-04-15T10:56:44;101695.25;;;14.30;51.95
46710;BME280;32442;51.514;-0.178;2023-04-15T10:59:11;101689.44;;;14.31;51.64
46710;BME280;32442;51.514;-0.178;2023-04-15T11:01:49;101692.72;;;14.28;51.89
46710;BME280;32442;51.514;-0.178;2023-04-15T11:07:03;101708.88;;;14.31;51.67
46710;BME280;32442;51.514;-0.178;2023-04-15T11:09:31;101710.84;;;14.31;51.87
46710;BME280;32442;51.514;-0.178;2023-04-15T11:14:39;101719.19;;;14.31;51.91
46710;BME280;32442;51.514;-0.178;2023-04-15T11:17:07;101709.75;;;14.32;51.63
46710;BME280;32442;51.514;-0.178;2023-04-15T11:19:35;101717.50;;;14.30;51.83
46710;BME280;32442;51.514;-0.178;2023-04-15T11:22:06;101713.88;;;14.29;52.00
46710;BME280;32442;51.514;-0.178;2023-04-15T11:24:33;101718.59;;;14.29;52.06
46710;BME280;32442;51.514;-0.178;2023-04-15T11:27:00;101725.00;;;14.29;51.84
46710;BME280;32442;51.514;-0.178;2023-04-15T11:29:28;101717.72;;;14.28;51.97
46710;BME280;32442;51.514;-0.178;2023-04-15T11:32:04;101722.44;;;14.27;51.88
46710;BME280;32442;51.514;-0.178;2023-04-15T11:34:32;101725.00;;;14.29;51.83
46710;BME280;32442;51.514;-0.178;2023-04-15T11:37:04;101731.97;;;14.32;51.78
46710;BME280;32442;51.514;-0.178;2023-04-15T11:39:32;101733.09;;;14.31;51.98
46710;BME280;32442;51.514;-0.178;2023-04-15T11:41:58;101739.72;;;14.30;51.91
46710;BME280;32442;51.514;-0.178;2023-04-15T11:44:25;101742.38;;;14.36;51.99
46710;BME280;32442;51.514;-0.178;2023-04-15T11:46:53;101743.94;;;14.32;52.10
46710;BME280;32442;51.514;-0.178;2023-04-15T11:49:28;101741.63;;;14.41;51.70
46710;BME280;32442;51.514;-0.178;2023-04-15T11:51:56;101748.88;;;14.42;51.84
46710;BME280;32442;51.514;-0.178;2023-04-15T11:54:23;101746.34;;;14.40;52.08
46710;BME280;32442;51.514;-0.178;2023-04-15T11:56:50;101749.75;;;14.42;52.02
46710;BME280;32442;51.514;-0.178;2023-04-15T11:59:18;101752.63;;;14.47;51.85
46710;BME280;32442;51.514;-0.178;2023-04-15T12:01:45;101748.16;;;14.46;51.69
46710;BME280;32442;51.514;-0.178;2023-04-15T12:04:14;101746.09;;;14.53;51.46
46710;BME280;32442;51.514;-0.178;2023-04-15T12:06:44;101748.47;;;14.61;51.23
46710;BME280;32442;51.514;-0.178;2023-04-15T12:09:12;101750.50;;;14.66;51.16
46710;BME280;32442;51.514;-0.178;2023-04-15T12:11:42;101753.00;;;14.67;51.38
46710;BME280;32442;51.514;-0.178;2023-04-15T12:16:38;101764.13;;;14.67;51.15
46710;BME280;32442;51.514;-0.178;2023-04-15T12:19:17;101765.47;;;14.65;51.54
46710;BME280;32442;51.514;-0.178;2023-04-15T12:21:45;101769.63;;;14.62;51.64
46710;BME280;32442;51.514;-0.178;2023-04-15T12:24:13;101775.19;;;14.62;51.47
46710;BME280;32442;51.514;-0.178;2023-04-15T12:29:09;101777.09;;;14.62;51.29
46710;BME280;32442;51.514;-0.178;2023-04-15T12:31:42;101781.31;;;14.64;51.53
46710;BME280;32442;51.514;-0.178;2023-04-15T12:34:13;101771.88;;;14.65;51.38
46710;BME280;32442;51.514;-0.178;2023-04-15T12:36:40;101782.50;;;14.68;51.56
46710;BME280;32442;51.514;-0.178;2023-04-15T12:39:07;101787.59;;;14.72;51.47
46710;BME280;32442;51.514;-0.178;2023-04-15T12:41:34;101790.59;;;14.70;51.18
46710;BME280;32442;51.514;-0.178;2023-04-15T12:44:01;101785.28;;;14.68;51.15
46710;BME280;32442;51.514;-0.178;2023-04-15T12:46:28;101784.81;;;14.72;51.33
46710;BME280;32442;51.514;-0.178;2023-04-15T12:48:55;101784.88;;;14.77;50.98
46710;BME280;32442;51.514;-0.178;2023-04-15T12:51:22;101783.56;;;14.79;51.11
46710;BME280;32442;51.514;-0.178;2023-04-15T12:53:49;101787.19;;;14.80;50.85
46710;BME280;32442;51.514;-0.178;2023-04-15T12:56:16;101789.13;;;14.79;51.12
46710;BME280;32442;51.514;-0.178;2023-04-15T12:58:43;101786.44;;;14.84;51.04
46710;BME280;32442;51.514;-0.178;2023-04-15T13:01:10;101796.47;;;14.85;51.08
46710;BME280;32442;51.514;-0.178;2023-04-15T13:03:37;101796.19;;;14.87;50.95
46710;BME280;32442;51.514;-0.178;2023-04-15T13:06:04;101805.16;;;14.89;50.92
46710;BME280;32442;51.514;-0.178;2023-04-15T13:08:31;101805.16;;;14.89;50.98
46710;BME280;32442;51.514;-0.178;2023-04-15T13:10:58;101809.03;;;14.88;50.68